createdAt,value
2022-10-13T00:03:50.128Z,73.08
2022-10-13T00:08:56.648Z,73.00
2022-10-13T00:14:01.599Z,73.08
2022-10-13T00:19:06.328Z,72.87
2022-10-13T00:24:12.133Z,72.92
2022-10-13T00:29:14.919Z,72.90
2022-10-13T00:34:18.860Z,73.00
2022-10-13T00:39:21.639Z,73.33
2022-10-13T00:44:54.549Z,73.72
2022-10-13T00:49:59.247Z,74.08
2022-10-13T00:55:04.252Z,74.37
2022-10-13T01:00:08.607Z,74.26
2022-10-13T01:05:12.873Z,74.35
2022-10-13T01:10:24.609Z,74.07
2022-10-13T01:15:33.284Z,73.61
2022-10-13T01:20:51.561Z,73.49
2022-10-13T01:26:24.825Z,73.71
2022-10-13T01:31:36.369Z,73.63
2022-10-13T01:36:49.677Z,73.70
2022-10-13T01:41:56.750Z,73.75
2022-10-13T01:47:03.461Z,73.66
2022-10-13T01:52:17.383Z,73.73
2022-10-13T01:57:34.635Z,74.12
2022-10-13T02:02:46.172Z,74.37
2022-10-13T02:07:55.332Z,74.37
2022-10-13T02:13:05.104Z,74.23
2022-10-13T02:18:11.408Z,74.17
2022-10-13T02:23:17.201Z,74.07
2022-10-13T02:28:20.835Z,74.03
2022-10-13T02:33:25.048Z,74.25
2022-10-13T02:38:27.824Z,74.25
2022-10-13T02:43:30.689Z,74.25
2022-10-13T02:48:34.792Z,74.41
2022-10-13T02:53:37.559Z,74.47
2022-10-13T02:58:40.119Z,74.66
2022-10-13T03:03:44.731Z,74.53
2022-10-13T03:08:47.485Z,74.27
2022-10-13T03:20:19.934Z,74.19
2022-10-13T03:25:22.873Z,74.24
2022-10-13T03:30:26.546Z,74.25
2022-10-13T03:35:30.598Z,74.60
2022-10-13T03:40:33.383Z,74.65
2022-10-13T03:45:35.836Z,74.48
2022-10-13T03:50:39.886Z,74.31
2022-10-13T03:55:42.630Z,73.99
2022-10-13T04:00:45.181Z,73.86
2022-10-13T04:05:49.232Z,73.92
2022-10-13T04:10:59.873Z,73.90
2022-10-13T04:16:03.575Z,73.94
2022-10-13T04:21:10.291Z,73.95
2022-10-13T04:26:18.280Z,73.87
2022-10-13T04:31:22.749Z,73.85
2022-10-13T04:36:27.670Z,74.03
2022-10-13T04:41:30.476Z,74.10
2022-10-13T04:46:33.188Z,73.99
2022-10-13T04:51:37.300Z,74.09
2022-10-13T04:56:40.047Z,74.17
2022-10-13T05:01:43.163Z,74.33
2022-10-13T05:07:16.069Z,74.27
2022-10-13T05:12:13.383Z,74.25
2022-10-13T05:17:15.978Z,74.47
2022-10-13T05:22:20.258Z,74.24
2022-10-13T05:27:23.395Z,74.30
2022-10-13T05:32:26.001Z,74.09
2022-10-13T05:37:30.156Z,74.33
2022-10-13T05:42:33.312Z,74.51
2022-10-13T05:47:36.383Z,74.78
2022-10-13T05:52:40.696Z,74.83
2022-10-13T05:57:46.648Z,74.71
2022-10-13T06:02:55.958Z,74.39
2022-10-13T06:08:01.028Z,74.58
2022-10-13T06:13:03.802Z,74.04
2022-10-13T06:18:08.448Z,74.03
2022-10-13T06:23:12.637Z,74.03
2022-10-13T06:28:15.865Z,74.11
2022-10-13T06:33:18.633Z,73.82
2022-10-13T06:38:22.747Z,73.20
2022-10-13T06:43:32.404Z,72.85
2022-10-13T06:48:39.833Z,72.67
2022-10-13T06:53:44.066Z,72.26
2022-10-13T06:58:46.902Z,72.18
2022-10-13T07:03:50.459Z,71.98
2022-10-13T07:08:58.139Z,72.04
2022-10-13T07:19:08.895Z,71.82
2022-10-13T07:24:15.813Z,71.55
2022-10-13T07:29:18.627Z,71.43
2022-10-13T07:34:21.993Z,71.05
2022-10-13T07:39:26.119Z,70.54
2022-10-13T07:44:28.973Z,70.25
2022-10-13T07:49:31.934Z,70.03
2022-10-13T07:54:36.519Z,70.15
2022-10-13T07:59:40.071Z,69.61
2022-10-13T08:04:45.959Z,68.26
2022-10-13T08:09:50.124Z,66.17
2022-10-13T08:14:52.894Z,64.95
2022-10-13T08:19:56.211Z,64.82
2022-10-13T08:25:03.481Z,63.27
2022-10-13T08:30:07.653Z,64.14
2022-10-13T08:35:12.551Z,64.37
2022-10-13T08:40:20.365Z,64.98
2022-10-13T08:45:42.814Z,64.90
2022-10-13T08:50:48.702Z,63.76
2022-10-13T08:55:57.833Z,63.84
2022-10-13T09:01:13.384Z,63.00
2022-10-13T09:06:21.635Z,61.87
2022-10-13T09:11:28.308Z,62.03
2022-10-13T09:16:35.456Z,60.42
2022-10-13T09:21:40.096Z,60.53
2022-10-13T09:26:45.754Z,60.43
2022-10-13T09:31:48.852Z,60.82
2022-10-13T09:37:00.113Z,60.38
2022-10-13T09:42:23.936Z,60.07
2022-10-13T09:47:28.756Z,59.65
2022-10-13T09:52:31.778Z,60.14
2022-10-13T09:57:43.613Z,57.95
2022-10-13T10:02:53.519Z,58.19
2022-10-13T10:08:01.689Z,59.37
2022-10-13T10:13:11.798Z,60.33
2022-10-13T10:18:20.144Z,60.10
2022-10-13T10:23:33.763Z,59.92
2022-10-13T10:28:58.512Z,59.49
2022-10-13T10:34:15.483Z,59.49
2022-10-13T10:39:24.412Z,59.16
2022-10-13T10:44:31.857Z,59.17
2022-10-13T10:49:36.463Z,58.33
2022-10-13T10:54:48.388Z,59.16
2022-10-13T11:00:00.760Z,59.07
2022-10-13T11:05:06.386Z,59.59
2022-10-13T11:10:21.977Z,59.64
2022-10-13T11:15:31.097Z,59.30
2022-10-13T11:20:58.357Z,60.92
2022-10-13T11:26:21.101Z,60.17
2022-10-13T11:31:33.466Z,59.33
2022-10-13T11:36:47.240Z,58.74
2022-10-13T11:41:58.469Z,57.55
2022-10-13T11:47:12.928Z,59.39
2022-10-13T11:52:46.354Z,58.30
2022-10-13T11:57:49.191Z,58.92
2022-10-13T12:02:54.597Z,57.26
2022-10-13T12:08:01.964Z,57.08
2022-10-13T12:13:05.166Z,56.94
2022-10-13T12:18:23.538Z,58.09
2022-10-13T12:23:29.756Z,57.73
2022-10-13T12:28:49.502Z,57.47
2022-10-13T12:33:58.376Z,57.56
2022-10-13T12:39:04.833Z,56.33
2022-10-13T12:44:12.661Z,55.84
2022-10-13T12:49:22.533Z,54.60
2022-10-13T12:54:29.853Z,51.15
2022-10-13T12:59:34.717Z,47.86
2022-10-13T13:04:44.677Z,45.98
2022-10-13T13:10:02.097Z,47.37
2022-10-13T13:15:20.905Z,46.86
2022-10-13T13:20:29.096Z,48.47
2022-10-13T13:25:31.905Z,48.51
2022-10-13T13:30:35.457Z,51.36
2022-10-13T13:35:39.625Z,52.55
2022-10-13T13:40:42.477Z,52.44
2022-10-13T13:45:48.421Z,51.87
2022-10-13T13:50:52.556Z,49.56
2022-10-13T13:55:55.340Z,51.05
2022-10-13T14:01:00.292Z,52.20
2022-10-13T14:06:04.507Z,52.97
2022-10-13T14:11:07.810Z,52.84
2022-10-13T14:16:16.105Z,53.87
2022-10-13T14:21:20.210Z,53.65
2022-10-13T14:26:23.818Z,54.44
2022-10-13T14:31:26.631Z,54.33
2022-10-13T14:36:30.776Z,54.66
2022-10-13T14:41:33.583Z,54.37
2022-10-13T14:46:36.354Z,55.32
2022-10-13T14:51:40.593Z,54.80
2022-10-13T14:56:44.555Z,54.75
2022-10-13T15:01:49.229Z,55.33
2022-10-13T15:06:53.541Z,55.64
2022-10-13T15:11:56.344Z,56.02
2022-10-13T15:16:59.146Z,55.27
2022-10-13T15:22:03.561Z,56.06
2022-10-13T15:27:06.398Z,57.48
2022-10-13T15:32:11.632Z,58.06
2022-10-13T15:37:15.829Z,58.41
2022-10-13T15:42:19.052Z,57.68
2022-10-13T15:47:21.955Z,57.73
2022-10-13T15:52:28.682Z,58.85
2022-10-13T15:57:35.081Z,59.69
2022-10-13T16:02:37.844Z,60.39
2022-10-13T16:07:42.351Z,63.39
2022-10-13T16:12:49.398Z,66.14
2022-10-13T16:17:53.248Z,67.81
2022-10-13T16:22:57.434Z,70.60
2022-10-13T16:28:00.774Z,72.76
2022-10-13T16:33:04.038Z,73.49
2022-10-13T16:38:08.159Z,74.51
2022-10-13T16:43:10.903Z,76.72
2022-10-13T16:48:14.975Z,78.96
2022-10-13T16:53:19.378Z,79.38
2022-10-13T16:58:22.101Z,80.40
2022-10-13T17:03:24.888Z,81.13
2022-10-13T17:08:29.082Z,81.07
2022-10-13T17:13:35.213Z,81.59
2022-10-13T17:18:37.944Z,81.87
2022-10-13T17:23:47.351Z,82.07
2022-10-13T17:28:51.371Z,82.35
2022-10-13T17:33:54.601Z,82.23
2022-10-13T17:39:04.068Z,82.76
2022-10-13T17:44:06.840Z,83.07
2022-10-13T17:49:12.546Z,82.83
2022-10-13T17:54:16.973Z,82.83
2022-10-13T17:59:20.018Z,82.95
2022-10-13T18:04:23.654Z,83.03
2022-10-13T18:09:27.948Z,83.60
2022-10-13T18:14:30.740Z,83.43
2022-10-13T18:19:37.816Z,83.48
2022-10-13T18:24:44.286Z,83.67
2022-10-13T18:29:47.024Z,83.69
2022-10-13T18:34:49.745Z,83.20
2022-10-13T18:39:53.824Z,83.62
2022-10-13T18:44:56.535Z,84.00
2022-10-13T18:49:59.311Z,84.17
2022-10-13T18:55:03.469Z,84.46
2022-10-13T19:00:08.604Z,84.16
2022-10-13T19:05:11.340Z,84.44
2022-10-13T19:10:15.547Z,84.34
2022-10-13T19:15:18.516Z,84.03
2022-10-13T19:20:21.257Z,84.27
2022-10-13T19:25:26.399Z,84.57
2022-10-13T19:30:29.225Z,84.74
2022-10-13T19:35:32.132Z,84.69
2022-10-13T19:40:41.490Z,84.95
2022-10-13T19:45:47.268Z,85.17
2022-10-13T19:50:50.749Z,84.91
2022-10-13T19:55:54.888Z,84.80
2022-10-13T20:01:03.057Z,84.77
2022-10-13T20:06:07.172Z,84.94
2022-10-13T20:11:23.038Z,84.26
2022-10-13T20:16:26.852Z,83.54
2022-10-13T20:21:31.160Z,83.20
2022-10-13T20:26:35.302Z,83.43
2022-10-13T20:31:38.135Z,83.46
2022-10-13T20:36:41.694Z,83.19
2022-10-13T20:41:45.978Z,82.46
2022-10-13T20:46:49.853Z,83.06
2022-10-13T20:51:52.605Z,82.08
2022-10-13T20:56:57.792Z,81.75
2022-10-13T21:02:00.508Z,81.64
2022-10-13T21:07:03.228Z,82.11
2022-10-13T21:12:08.108Z,84.79
2022-10-13T21:17:10.870Z,85.12
2022-10-13T21:22:13.603Z,86.19
2022-10-13T21:27:17.937Z,86.50
2022-10-13T21:32:20.836Z,86.54
2022-10-13T21:37:24.777Z,86.89
2022-10-13T21:42:30.539Z,87.24
2022-10-13T21:47:34.494Z,87.30
2022-10-13T21:52:37.420Z,87.35
2022-10-13T21:57:41.525Z,87.54
2022-10-13T22:02:44.280Z,87.72
2022-10-13T22:07:47.489Z,87.73
2022-10-13T22:12:51.660Z,87.78
2022-10-13T22:17:54.473Z,87.87
2022-10-13T22:22:57.922Z,87.82
2022-10-13T22:28:02.082Z,87.70
2022-10-13T22:33:05.217Z,87.81
2022-10-13T22:38:09.789Z,87.70
2022-10-13T22:43:14.015Z,88.08
2022-10-13T22:48:16.818Z,87.83
2022-10-13T22:53:19.569Z,87.88
2022-10-13T22:58:23.710Z,87.65
2022-10-13T23:03:28.261Z,87.88
2022-10-13T23:08:35.271Z,87.55
2022-10-13T23:13:39.654Z,87.52
2022-10-13T23:18:42.488Z,87.84
2022-10-13T23:23:57.803Z,87.65
2022-10-13T23:29:01.986Z,87.71
2022-10-13T23:34:04.828Z,87.53
2022-10-13T23:39:08.287Z,87.57
2022-10-13T23:44:12.435Z,88.28
2022-10-13T23:49:15.332Z,88.32
2022-10-13T23:54:18.126Z,88.83
2022-10-13T23:59:22.292Z,89.05
